Dog Valley, California Weather observations

Data are for 10 minute period ending at time listed.
 Day   Time    Ave.   Ave.  Ave.  Vector   Max.   Total    Solar   
  of    of     Air    Rel.  Wind   Wind    Wind  Precip.   Rad.    
Year   Day     Temp.  Hum.  Speed  Dir.    Gust                    
2016   (PST)    F      %     mph   deg.    mph     in.     W/m2    
------------------------------------------------------------------- 
 146   15:00   59.0    45    1.0   342     12.0    5.20     459  
 146   16:00   51.0    68    4.0   261     16.0    5.20     339  
 146   17:00   52.0    64    1.0   267     14.0    5.20     172  
 146   18:00   48.0    89    1.0   187      7.0    5.22      94  
 146   19:00   47.0    82    2.0   166      9.0    5.22      27  
 146   20:00   46.0    87    1.0   219      5.0    5.22       2  
 146   21:00   45.0    87    1.0   190      7.0    5.22       0  
 146   22:00   43.0    90    1.0   254      7.0    5.22       0  
 146   23:00   41.0    91    1.0   284      5.0    5.22       0  
 147    0:00   36.0    96    0.0   272      3.0    5.22       0  
 147    1:00   34.0    97    0.0   298      2.0    5.22       0  
 147    2:00   33.0    98    0.0   302      2.0    5.22       0  
 147    3:00   33.0    98    0.0   354      3.0    5.22       0  
 147    4:00   33.0    98    0.0   126      2.0    5.22       0  
 147    5:00   36.0    99    0.0   300      2.0    5.22       1  
 147    6:00   37.0    99    0.0   166      5.0    5.22      29  
 147    7:00   48.0    83    1.0   207      4.0    5.22     173  
 147    8:00   51.0    72    1.0   211      6.0    5.22     229  
 147    9:00   59.0    38    2.0    77      6.0    5.22     637  
 147   10:00   57.0    60    1.0   185      7.0    5.22     367  
 147   11:00   58.0    44    3.0   151      7.0    5.22     598  
 147   12:00   61.0    39    2.0   334      6.0    5.22     609  
 147   13:00   59.0    40    0.0    43      5.0    5.22     402  
 147   14:00   64.0    33    1.0   316      6.0    5.22     738  

Return to Dog Valley, California graphs page.


Western Regional Climate Center,wrcc@dri.edu